METAR Data
IDs: Format: Raw Decoded Include TAF

Data at: 1814 UTC 21 Sep 2018

KADS 211747Z 15011G16KT 10SM BKN015 BKN023 OVC075 28/24 A2997
KADS 211732Z 15012KT 10SM OVC015 OVC075 28/24 A2997
KADS 211647Z 15011G20KT 10SM SCT017 SCT026 BKN100 28/23 A2998
KADS 211547Z 15010G16KT 10SM BKN016 BKN031 OVC085 27/23 A2999
KADS 211447Z 15011G17KT 10SM -RA BKN013 BKN022 OVC080 26/23 A2997
KADS 211347Z 15009KT 8SM OVC009 26/23 A2997
KADS 211247Z 15009KT 10SM OVC014 25/23 A2995
KADS 211150Z 16007KT 10SM OVC014 25/23 A2995
KADS 211111Z 15007KT 10SM BKN012 OVC060 24/22 A2994
KADS 211052Z 16007KT 10SM SCT012 OVC060 25/22 A2994
KADS 211035Z AUTO 17006KT 10SM BKN060 OVC080 24/23 A2995 RMK AO2 T02430225
KADS 211015Z AUTO 17005KT 10SM SCT060 BKN070 OVC100 24/23 A2995 RMK AO2 T02420225
KADS 210955Z AUTO 17005KT 10SM OVC065 24/22 A2995 RMK AO2 T02410222
KADS 210935Z AUTO 16008KT 10SM BKN065 OVC075 24/22 A2995 RMK AO2 T02400221
KADS 210915Z AUTO 16006KT 10SM BKN065 OVC075 24/22 A2995 RMK AO2 T02400221
KADS 210855Z AUTO 14006KT 10SM OVC065 24/22 A2995 RMK AO2 T02380220
KADS 210835Z AUTO 16006KT 10SM -DZ SCT032 OVC065 24/22 A2995 RMK AO2 T02360220
KADS 210815Z AUTO 13003KT 10SM -DZ SCT032 SCT039 OVC065 24/22 A2996 RMK AO2 T02360218
KADS 210755Z AUTO 16006KT 10SM -RA SCT022 OVC065 24/21 A2996 RMK AO2 T02380214
KADS 210735Z AUTO 16006KT 10SM BKN065 BKN075 OVC095 24/21 A2995 RMK AO2 T02390211
KADS 210715Z AUTO 16006KT 10SM BKN060 BKN075 OVC095 24/21 A2996 RMK AO2 T02350211
KADS 210655Z AUTO 15007KT 10SM OVC060 24/21 A2995 RMK AO2 T02350212
KADS 210635Z AUTO 13005KT 10SM OVC060 24/21 A2996 RMK AO2 T02350212
KADS 210615Z AUTO 15007KT 10SM OVC065 24/21 A2996 RMK AO2 T02370208
KADS 210555Z AUTO 15005KT 10SM BKN065 OVC085 24/21 A2996 RMK AO2 T02360210 10250 20216 403210216
KADS 210535Z AUTO 00000KT 10SM BKN085 24/21 A2997 RMK AO2 T02350209
KADS 210515Z AUTO 17004KT 10SM CLR 23/21 A2997 RMK AO2 T02330207
KADS 210455Z AUTO 16005KT 10SM CLR 24/21 A2997 RMK AO2 T02370208
KADS 210435Z AUTO 17004KT 10SM CLR 24/21 A2997 RMK AO2 T02400209
KADS 210415Z AUTO 17006KT 10SM SCT110 24/21 A2998 RMK AO2 T02420208
KADS 210355Z AUTO 17005KT 10SM BKN120 25/21 A2998 RMK AO2 T02450207
KADS 210335Z AUTO 16008KT 10SM SCT120 24/21 A2997 RMK AO2 T02430210
KADS 210315Z AUTO 13006KT 10SM SCT090 24/21 A2996 RMK AO2 T02420209
KADS 210147Z 12008KT 10SM SCT110 25/21 A2995
KADS 210050Z 11015G22KT 7SM TSRA VC BKN042 BKN050 BKN080 24/20 A2993 RMK LTNG VC
KADS 210047Z 00000KT 7SM TSRA VC BKN042 BKN050 BKN080 24/20 A2993 RMK LTNG VC
KADS 210010Z COR 00000KT 6SM TSRA VC SCT009 BKN019 22/19 A2993 RMK LTNG VC
KADS 202355Z AUTO 15021G47KT 1 1/2SM TS BKN019 30/19 A2991 RMK LTNG VC
KADS 202347Z AUTO 15021G47KT 1 1/2SM TS BKN019 30/19 A2991 RMK LTNG VC
KADS 202255Z COR 14012G16KT 10SM SKC 30/20 A2989
KADS 202147Z 15015G20KT 10SM SCT047 BKN055 BKN092 31/20 A2989
KADS 202047Z 16011G16KT 10SM SCT043 32/20 A2991
KADS 201947Z 17009KT 10SM SCT043 31/21 A2993
KADS 201847Z 14009G16KT 10SM SCT040 SCT046 31/21 A2995
KADS 201751Z 18010G14KT 10SM BKN040 BKN047 31/20 A2997
KADS 201647Z 19006G14KT 10SM SKC 30/21 A2999
KADS 201547Z 14009KT 10SM SKC 29/21 A2999
KADS 201455Z 20007KT 10SM SKC 28/20 A2999
KADS 201347Z 15008KT 10SM SKC 27/22 A2997
KADS 201247Z 14007KT 10SM FEW180 25/21 A2995
KADS 201147Z 17006KT 10SM FEW180 25/21 A2994
KADS 201047Z 18005KT 10SM SKC 25/21 A2993
KADS 201035Z AUTO 18005KT 10SM CLR 25/21 A2994 RMK AO2 T02530213
KADS 201015Z AUTO 19005KT 10SM CLR 26/21 A2994 RMK AO2 T02550213
KADS 200955Z AUTO 16007KT 10SM CLR 25/21 A2994 RMK AO2 T02530213
KADS 200935Z AUTO 17007KT 10SM CLR 25/21 A2994 RMK AO2 T02520212
KADS 200915Z AUTO 15007KT 10SM CLR 25/22 A2994 RMK AO2 T02540215
KADS 200855Z AUTO 19005KT 10SM CLR 26/22 A2994 RMK AO2 T02580215
KADS 200835Z AUTO 16006KT 10SM CLR 26/22 A2994 RMK AO2 T02580215
KADS 200815Z AUTO 16007KT 10SM CLR 26/22 A2994 RMK AO2 T02610215
KADS 200755Z AUTO 16009KT 10SM CLR 26/22 A2995 RMK AO2 T02630215
KADS 200735Z AUTO 15011KT 10SM CLR 27/21 A2995 RMK AO2 T02660211
KADS 200715Z AUTO 15006KT 10SM CLR 27/21 A2995 RMK AO2 T02700208
KADS 200655Z AUTO 16008KT 10SM CLR 27/21 A2994 RMK AO2 T02740207
KADS 200635Z AUTO 17006KT 10SM CLR 28/20 A2995 RMK AO2 T02800201
KADS 200615Z AUTO 17007KT 10SM CLR 29/20 A2996 RMK AO2 T02860200